sensor_id;sensor_type;location;lat;lon;timestamp;P1;durP1;ratioP1;P2;durP2;ratioP2
2299;SDS011;1158;48.750;9.078;2022-12-11T00:01:11;35.70;;;18.97;;
2299;SDS011;1158;48.750;9.078;2022-12-11T00:03:39;39.10;;;18.20;;
2299;SDS011;1158;48.750;9.078;2022-12-11T00:06:07;39.00;;;17.90;;
2299;SDS011;1158;48.750;9.078;2022-12-11T00:08:34;34.33;;;16.90;;
2299;SDS011;1158;48.750;9.078;2022-12-11T00:11:03;36.77;;;16.87;;
2299;SDS011;1158;48.750;9.078;2022-12-11T00:13:30;44.90;;;21.00;;
2299;SDS011;1158;48.750;9.078;2022-12-11T00:15:57;34.93;;;16.53;;
2299;SDS011;1158;48.750;9.078;2022-12-11T00:18:24;40.03;;;18.00;;
2299;SDS011;1158;48.750;9.078;2022-12-11T00:20:51;42.00;;;18.47;;
2299;SDS011;1158;48.750;9.078;2022-12-11T00:23:18;39.90;;;17.73;;
2299;SDS011;1158;48.750;9.078;2022-12-11T00:25:45;41.13;;;19.13;;
2299;SDS011;1158;48.750;9.078;2022-12-11T00:28:15;38.87;;;18.33;;
2299;SDS011;1158;48.750;9.078;2022-12-11T00:30:42;41.80;;;19.53;;
2299;SDS011;1158;48.750;9.078;2022-12-11T00:33:10;41.37;;;18.30;;
2299;SDS011;1158;48.750;9.078;2022-12-11T00:35:37;46.23;;;21.90;;
2299;SDS011;1158;48.750;9.078;2022-12-11T00:38:05;42.83;;;19.60;;
2299;SDS011;1158;48.750;9.078;2022-12-11T00:40:32;40.67;;;18.33;;
2299;SDS011;1158;48.750;9.078;2022-12-11T00:42:59;40.37;;;17.67;;
2299;SDS011;1158;48.750;9.078;2022-12-11T00:45:27;33.00;;;15.97;;
2299;SDS011;1158;48.750;9.078;2022-12-11T00:47:54;39.30;;;18.17;;
2299;SDS011;1158;48.750;9.078;2022-12-11T00:50:21;39.37;;;18.30;;
2299;SDS011;1158;48.750;9.078;2022-12-11T00:52:48;42.87;;;18.87;;
2299;SDS011;1158;48.750;9.078;2022-12-11T00:55:14;38.57;;;18.33;;
2299;SDS011;1158;48.750;9.078;2022-12-11T00:57:42;38.13;;;18.90;;
2299;SDS011;1158;48.750;9.078;2022-12-11T01:00:09;43.07;;;19.90;;
2299;SDS011;1158;48.750;9.078;2022-12-11T01:02:39;32.87;;;16.27;;
2299;SDS011;1158;48.750;9.078;2022-12-11T01:05:06;38.30;;;18.00;;
2299;SDS011;1158;48.750;9.078;2022-12-11T01:07:34;43.67;;;18.60;;
2299;SDS011;1158;48.750;9.078;2022-12-11T01:10:01;36.80;;;17.20;;
2299;SDS011;1158;48.750;9.078;2022-12-11T01:12:45;47.43;;;19.93;;
2299;SDS011;1158;48.750;9.078;2022-12-11T01:15:12;46.00;;;20.60;;
2299;SDS011;1158;48.750;9.078;2022-12-11T01:17:40;40.70;;;19.43;;
2299;SDS011;1158;48.750;9.078;2022-12-11T01:20:07;42.83;;;19.53;;
2299;SDS011;1158;48.750;9.078;2022-12-11T01:22:35;46.63;;;19.67;;
2299;SDS011;1158;48.750;9.078;2022-12-11T01:25:01;59.10;;;23.70;;
2299;SDS011;1158;48.750;9.078;2022-12-11T01:27:29;68.20;;;24.97;;
2299;SDS011;1158;48.750;9.078;2022-12-11T01:29:56;35.70;;;17.73;;
2299;SDS011;1158;48.750;9.078;2022-12-11T01:32:23;48.57;;;19.60;;
2299;SDS011;1158;48.750;9.078;2022-12-11T01:34:51;35.60;;;16.80;;
2299;SDS011;1158;48.750;9.078;2022-12-11T01:37:18;34.30;;;15.40;;
2299;SDS011;1158;48.750;9.078;2022-12-11T01:39:45;29.90;;;14.30;;
2299;SDS011;1158;48.750;9.078;2022-12-11T01:42:13;33.13;;;15.83;;
2299;SDS011;1158;48.750;9.078;2022-12-11T01:47:51;28.23;;;14.20;;
2299;SDS011;1158;48.750;9.078;2022-12-11T01:50:23;34.20;;;17.30;;
2299;SDS011;1158;48.750;9.078;2022-12-11T01:52:50;29.50;;;14.67;;
2299;SDS011;1158;48.750;9.078;2022-12-11T01:55:17;26.87;;;15.00;;
2299;SDS011;1158;48.750;9.078;2022-12-11T01:57:46;34.43;;;16.20;;
2299;SDS011;1158;48.750;9.078;2022-12-11T02:00:15;29.67;;;15.40;;
2299;SDS011;1158;48.750;9.078;2022-12-11T02:02:42;37.77;;;19.70;;
2299;SDS011;1158;48.750;9.078;2022-12-11T02:05:09;35.60;;;18.33;;
2299;SDS011;1158;48.750;9.078;2022-12-11T02:07:39;28.40;;;15.73;;
2299;SDS011;1158;48.750;9.078;2022-12-11T02:10:08;31.33;;;15.27;;
2299;SDS011;1158;48.750;9.078;2022-12-11T02:12:38;32.17;;;17.67;;
2299;SDS011;1158;48.750;9.078;2022-12-11T02:15:09;36.20;;;16.70;;
2299;SDS011;1158;48.750;9.078;2022-12-11T02:17:43;35.10;;;16.00;;
2299;SDS011;1158;48.750;9.078;2022-12-11T02:20:17;33.63;;;16.50;;
2299;SDS011;1158;48.750;9.078;2022-12-11T02:22:57;29.17;;;15.40;;
2299;SDS011;1158;48.750;9.078;2022-12-11T02:25:34;29.67;;;15.93;;
2299;SDS011;1158;48.750;9.078;2022-12-11T02:28:13;35.00;;;16.80;;
2299;SDS011;1158;48.750;9.078;2022-12-11T02:30:46;32.37;;;16.13;;
2299;SDS011;1158;48.750;9.078;2022-12-11T02:33:17;27.30;;;14.20;;
2299;SDS011;1158;48.750;9.078;2022-12-11T02:35:50;35.23;;;15.20;;
2299;SDS011;1158;48.750;9.078;2022-12-11T02:38:18;27.10;;;14.10;;
2299;SDS011;1158;48.750;9.078;2022-12-11T02:40:49;24.90;;;13.27;;
2299;SDS011;1158;48.750;9.078;2022-12-11T02:43:19;28.50;;;14.20;;
2299;SDS011;1158;48.750;9.078;2022-12-11T02:45:48;25.83;;;13.40;;
2299;SDS011;1158;48.750;9.078;2022-12-11T02:48:17;26.43;;;14.13;;
2299;SDS011;1158;48.750;9.078;2022-12-11T02:50:46;27.73;;;15.10;;
2299;SDS011;1158;48.750;9.078;2022-12-11T02:53:16;27.83;;;13.83;;
2299;SDS011;1158;48.750;9.078;2022-12-11T02:55:45;28.20;;;13.90;;
2299;SDS011;1158;48.750;9.078;2022-12-11T02:58:15;27.73;;;13.90;;
2299;SDS011;1158;48.750;9.078;2022-12-11T03:00:46;31.60;;;14.13;;
2299;SDS011;1158;48.750;9.078;2022-12-11T03:03:13;28.10;;;13.30;;
2299;SDS011;1158;48.750;9.078;2022-12-11T03:05:40;24.87;;;13.90;;
2299;SDS011;1158;48.750;9.078;2022-12-11T03:08:07;25.90;;;13.17;;
2299;SDS011;1158;48.750;9.078;2022-12-11T03:10:34;25.23;;;13.50;;
2299;SDS011;1158;48.750;9.078;2022-12-11T03:13:01;28.97;;;13.83;;
2299;SDS011;1158;48.750;9.078;2022-12-11T03:15:31;25.93;;;13.20;;
2299;SDS011;1158;48.750;9.078;2022-12-11T03:18:05;25.17;;;14.47;;
2299;SDS011;1158;48.750;9.078;2022-12-11T03:20:40;30.13;;;14.00;;
2299;SDS011;1158;48.750;9.078;2022-12-11T03:23:12;22.50;;;12.27;;
2299;SDS011;1158;48.750;9.078;2022-12-11T03:25:49;27.33;;;13.53;;
2299;SDS011;1158;48.750;9.078;2022-12-11T03:28:19;23.33;;;13.10;;
2299;SDS011;1158;48.750;9.078;2022-12-11T03:30:50;21.43;;;11.67;;
2299;SDS011;1158;48.750;9.078;2022-12-11T03:33:21;25.40;;;12.70;;
2299;SDS011;1158;48.750;9.078;2022-12-11T03:35:52;27.03;;;12.97;;
2299;SDS011;1158;48.750;9.078;2022-12-11T03:38:22;27.83;;;13.70;;
2299;SDS011;1158;48.750;9.078;2022-12-11T03:40:51;27.80;;;12.90;;
2299;SDS011;1158;48.750;9.078;2022-12-11T03:43:21;30.53;;;13.30;;
2299;SDS011;1158;48.750;9.078;2022-12-11T03:45:49;26.87;;;13.27;;
2299;SDS011;1158;48.750;9.078;2022-12-11T03:48:17;25.67;;;13.07;;
2299;SDS011;1158;48.750;9.078;2022-12-11T03:50:47;27.83;;;14.40;;
2299;SDS011;1158;48.750;9.078;2022-12-11T03:53:15;28.33;;;14.30;;
2299;SDS011;1158;48.750;9.078;2022-12-11T03:55:43;25.07;;;14.20;;
2299;SDS011;1158;48.750;9.078;2022-12-11T03:58:11;27.00;;;14.50;;
2299;SDS011;1158;48.750;9.078;2022-12-11T04:00:38;28.50;;;14.13;;
2299;SDS011;1158;48.750;9.078;2022-12-11T04:03:04;26.27;;;14.10;;
2299;SDS011;1158;48.750;9.078;2022-12-11T04:05:43;31.47;;;14.73;;
2299;SDS011;1158;48.750;9.078;2022-12-11T04:08:12;32.73;;;15.23;;
2299;SDS011;1158;48.750;9.078;2022-12-11T04:10:40;28.37;;;15.00;;
2299;SDS011;1158;48.750;9.078;2022-12-11T04:13:08;32.03;;;15.03;;
2299;SDS011;1158;48.750;9.078;2022-12-11T04:15:35;28.73;;;15.63;;
2299;SDS011;1158;48.750;9.078;2022-12-11T04:18:02;26.40;;;15.03;;
2299;SDS011;1158;48.750;9.078;2022-12-11T04:20:47;30.20;;;16.17;;
2299;SDS011;1158;48.750;9.078;2022-12-11T04:23:32;30.60;;;16.50;;
2299;SDS011;1158;48.750;9.078;2022-12-11T04:26:17;33.13;;;15.90;;
2299;SDS011;1158;48.750;9.078;2022-12-11T04:28:46;30.53;;;15.90;;
2299;SDS011;1158;48.750;9.078;2022-12-11T04:31:15;33.20;;;16.50;;
2299;SDS011;1158;48.750;9.078;2022-12-11T04:33:43;31.97;;;15.20;;
2299;SDS011;1158;48.750;9.078;2022-12-11T04:36:10;30.23;;;15.80;;
2299;SDS011;1158;48.750;9.078;2022-12-11T04:38:39;28.90;;;16.30;;
2299;SDS011;1158;48.750;9.078;2022-12-11T04:41:07;28.93;;;15.77;;
2299;SDS011;1158;48.750;9.078;2022-12-11T04:43:35;31.50;;;16.20;;
2299;SDS011;1158;48.750;9.078;2022-12-11T04:46:03;32.83;;;17.80;;
2299;SDS011;1158;48.750;9.078;2022-12-11T04:48:32;29.43;;;16.73;;
2299;SDS011;1158;48.750;9.078;2022-12-11T04:50:58;30.90;;;17.17;;
2299;SDS011;1158;48.750;9.078;2022-12-11T04:53:25;34.27;;;16.93;;
2299;SDS011;1158;48.750;9.078;2022-12-11T04:55:54;30.53;;;15.27;;
2299;SDS011;1158;48.750;9.078;2022-12-11T04:58:21;33.37;;;15.83;;
2299;SDS011;1158;48.750;9.078;2022-12-11T05:00:50;30.30;;;15.40;;
2299;SDS011;1158;48.750;9.078;2022-12-11T05:03:17;31.73;;;15.53;;
2299;SDS011;1158;48.750;9.078;2022-12-11T05:05:46;35.23;;;17.30;;
2299;SDS011;1158;48.750;9.078;2022-12-11T05:08:14;34.00;;;16.03;;
2299;SDS011;1158;48.750;9.078;2022-12-11T05:10:41;33.93;;;16.13;;
2299;SDS011;1158;48.750;9.078;2022-12-11T05:13:09;29.93;;;15.90;;
2299;SDS011;1158;48.750;9.078;2022-12-11T05:15:37;31.30;;;16.00;;
2299;SDS011;1158;48.750;9.078;2022-12-11T05:18:04;30.47;;;14.90;;
2299;SDS011;1158;48.750;9.078;2022-12-11T05:20:31;30.43;;;14.70;;
2299;SDS011;1158;48.750;9.078;2022-12-11T05:22:57;31.27;;;16.60;;
2299;SDS011;1158;48.750;9.078;2022-12-11T05:25:24;27.10;;;14.93;;
2299;SDS011;1158;48.750;9.078;2022-12-11T05:27:51;30.40;;;16.30;;
2299;SDS011;1158;48.750;9.078;2022-12-11T05:30:19;28.40;;;15.53;;
2299;SDS011;1158;48.750;9.078;2022-12-11T05:32:46;27.87;;;14.43;;
2299;SDS011;1158;48.750;9.078;2022-12-11T05:35:12;30.10;;;15.23;;
2299;SDS011;1158;48.750;9.078;2022-12-11T05:37:39;31.47;;;14.47;;
2299;SDS011;1158;48.750;9.078;2022-12-11T05:40:07;30.10;;;14.40;;
2299;SDS011;1158;48.750;9.078;2022-12-11T05:42:36;31.40;;;14.73;;
2299;SDS011;1158;48.750;9.078;2022-12-11T05:45:03;27.80;;;15.27;;
2299;SDS011;1158;48.750;9.078;2022-12-11T05:47:32;29.17;;;15.23;;
2299;SDS011;1158;48.750;9.078;2022-12-11T05:49:59;29.50;;;14.67;;
2299;SDS011;1158;48.750;9.078;2022-12-11T05:52:26;27.40;;;14.77;;
2299;SDS011;1158;48.750;9.078;2022-12-11T05:54:52;32.63;;;13.53;;
2299;SDS011;1158;48.750;9.078;2022-12-11T05:57:19;32.50;;;13.57;;
2299;SDS011;1158;48.750;9.078;2022-12-11T05:59:46;30.93;;;14.80;;
2299;SDS011;1158;48.750;9.078;2022-12-11T06:02:13;26.57;;;13.63;;
2299;SDS011;1158;48.750;9.078;2022-12-11T06:04:41;28.37;;;13.63;;
2299;SDS011;1158;48.750;9.078;2022-12-11T06:07:07;27.53;;;13.70;;
2299;SDS011;1158;48.750;9.078;2022-12-11T06:09:34;30.77;;;13.70;;
2299;SDS011;1158;48.750;9.078;2022-12-11T06:12:01;22.70;;;12.10;;
2299;SDS011;1158;48.750;9.078;2022-12-11T06:14:28;26.70;;;13.30;;
2299;SDS011;1158;48.750;9.078;2022-12-11T06:16:54;25.40;;;12.57;;
2299;SDS011;1158;48.750;9.078;2022-12-11T06:19:21;25.97;;;12.57;;
2299;SDS011;1158;48.750;9.078;2022-12-11T06:21:49;24.90;;;12.10;;
2299;SDS011;1158;48.750;9.078;2022-12-11T06:24:16;20.00;;;11.60;;
2299;SDS011;1158;48.750;9.078;2022-12-11T06:26:43;30.33;;;14.13;;
2299;SDS011;1158;48.750;9.078;2022-12-11T06:29:09;26.00;;;12.90;;
2299;SDS011;1158;48.750;9.078;2022-12-11T06:31:36;30.33;;;13.73;;
2299;SDS011;1158;48.750;9.078;2022-12-11T06:34:03;26.87;;;11.77;;
2299;SDS011;1158;48.750;9.078;2022-12-11T06:36:30;27.80;;;12.73;;
2299;SDS011;1158;48.750;9.078;2022-12-11T06:38:58;25.03;;;13.10;;
2299;SDS011;1158;48.750;9.078;2022-12-11T06:41:25;23.47;;;11.50;;
2299;SDS011;1158;48.750;9.078;2022-12-11T06:43:51;28.33;;;13.50;;
2299;SDS011;1158;48.750;9.078;2022-12-11T06:46:18;31.63;;;14.47;;
2299;SDS011;1158;48.750;9.078;2022-12-11T06:48:45;29.30;;;12.30;;
2299;SDS011;1158;48.750;9.078;2022-12-11T06:51:13;27.23;;;11.80;;
2299;SDS011;1158;48.750;9.078;2022-12-11T06:53:42;29.57;;;13.90;;
2299;SDS011;1158;48.750;9.078;2022-12-11T06:56:11;31.53;;;12.20;;
2299;SDS011;1158;48.750;9.078;2022-12-11T06:58:40;34.20;;;14.60;;
2299;SDS011;1158;48.750;9.078;2022-12-11T07:01:12;29.47;;;13.47;;
2299;SDS011;1158;48.750;9.078;2022-12-11T07:03:40;23.93;;;12.20;;
2299;SDS011;1158;48.750;9.078;2022-12-11T07:06:07;31.30;;;13.60;;
2299;SDS011;1158;48.750;9.078;2022-12-11T07:08:34;26.43;;;13.10;;
2299;SDS011;1158;48.750;9.078;2022-12-11T07:11:01;31.27;;;13.77;;
2299;SDS011;1158;48.750;9.078;2022-12-11T07:13:30;26.80;;;13.83;;
2299;SDS011;1158;48.750;9.078;2022-12-11T07:15:57;41.73;;;17.80;;
2299;SDS011;1158;48.750;9.078;2022-12-11T07:18:25;30.57;;;14.87;;
2299;SDS011;1158;48.750;9.078;2022-12-11T07:20:52;29.53;;;13.47;;
2299;SDS011;1158;48.750;9.078;2022-12-11T07:23:19;29.10;;;14.03;;
2299;SDS011;1158;48.750;9.078;2022-12-11T07:25:46;24.73;;;12.60;;
2299;SDS011;1158;48.750;9.078;2022-12-11T07:28:13;26.17;;;12.97;;
2299;SDS011;1158;48.750;9.078;2022-12-11T07:30:41;25.10;;;12.30;;
2299;SDS011;1158;48.750;9.078;2022-12-11T07:33:08;28.33;;;13.63;;
2299;SDS011;1158;48.750;9.078;2022-12-11T07:35:35;25.90;;;13.53;;
2299;SDS011;1158;48.750;9.078;2022-12-11T07:38:03;34.43;;;15.33;;
2299;SDS011;1158;48.750;9.078;2022-12-11T07:40:29;36.90;;;16.63;;
2299;SDS011;1158;48.750;9.078;2022-12-11T07:42:56;35.20;;;16.20;;
2299;SDS011;1158;48.750;9.078;2022-12-11T07:45:23;35.20;;;16.73;;
2299;SDS011;1158;48.750;9.078;2022-12-11T07:47:51;37.67;;;18.13;;
2299;SDS011;1158;48.750;9.078;2022-12-11T07:50:18;33.50;;;15.60;;
2299;SDS011;1158;48.750;9.078;2022-12-11T07:52:45;33.90;;;16.00;;
2299;SDS011;1158;48.750;9.078;2022-12-11T07:55:12;32.80;;;15.90;;
2299;SDS011;1158;48.750;9.078;2022-12-11T07:57:38;29.93;;;14.30;;
2299;SDS011;1158;48.750;9.078;2022-12-11T08:00:06;37.83;;;17.70;;
2299;SDS011;1158;48.750;9.078;2022-12-11T08:02:34;31.13;;;15.90;;
2299;SDS011;1158;48.750;9.078;2022-12-11T08:05:04;33.90;;;17.23;;
2299;SDS011;1158;48.750;9.078;2022-12-11T08:07:32;37.80;;;16.57;;
2299;SDS011;1158;48.750;9.078;2022-12-11T08:10:00;32.47;;;16.80;;
2299;SDS011;1158;48.750;9.078;2022-12-11T08:12:27;34.90;;;17.07;;
2299;SDS011;1158;48.750;9.078;2022-12-11T08:14:53;37.57;;;17.03;;
2299;SDS011;1158;48.750;9.078;2022-12-11T08:17:20;35.20;;;17.30;;
2299;SDS011;1158;48.750;9.078;2022-12-11T08:19:47;30.23;;;16.23;;
2299;SDS011;1158;48.750;9.078;2022-12-11T08:22:15;31.03;;;16.63;;
2299;SDS011;1158;48.750;9.078;2022-12-11T08:24:42;44.23;;;20.10;;
2299;SDS011;1158;48.750;9.078;2022-12-11T08:27:08;45.93;;;19.50;;
2299;SDS011;1158;48.750;9.078;2022-12-11T08:29:35;43.13;;;23.00;;
2299;SDS011;1158;48.750;9.078;2022-12-11T08:32:02;52.77;;;23.67;;
2299;SDS011;1158;48.750;9.078;2022-12-11T08:34:29;41.80;;;19.90;;
2299;SDS011;1158;48.750;9.078;2022-12-11T08:36:56;34.17;;;17.63;;
2299;SDS011;1158;48.750;9.078;2022-12-11T08:39:27;28.47;;;15.77;;
2299;SDS011;1158;48.750;9.078;2022-12-11T08:41:54;31.57;;;16.87;;
2299;SDS011;1158;48.750;9.078;2022-12-11T08:44:21;31.30;;;15.47;;
2299;SDS011;1158;48.750;9.078;2022-12-11T08:46:49;27.97;;;14.63;;
2299;SDS011;1158;48.750;9.078;2022-12-11T08:49:23;27.53;;;14.10;;
2299;SDS011;1158;48.750;9.078;2022-12-11T08:51:50;24.57;;;13.37;;
2299;SDS011;1158;48.750;9.078;2022-12-11T08:54:17;23.73;;;13.50;;
2299;SDS011;1158;48.750;9.078;2022-12-11T08:56:45;22.13;;;12.33;;
2299;SDS011;1158;48.750;9.078;2022-12-11T08:59:12;25.13;;;14.53;;
2299;SDS011;1158;48.750;9.078;2022-12-11T09:01:38;28.20;;;15.53;;
2299;SDS011;1158;48.750;9.078;2022-12-11T09:04:05;25.93;;;15.10;;
2299;SDS011;1158;48.750;9.078;2022-12-11T09:06:35;29.00;;;15.40;;
2299;SDS011;1158;48.750;9.078;2022-12-11T09:09:02;30.03;;;14.30;;
2299;SDS011;1158;48.750;9.078;2022-12-11T09:11:33;24.30;;;13.07;;
2299;SDS011;1158;48.750;9.078;2022-12-11T09:14:03;24.00;;;14.03;;
2299;SDS011;1158;48.750;9.078;2022-12-11T09:16:30;24.10;;;13.97;;
2299;SDS011;1158;48.750;9.078;2022-12-11T09:18:57;25.10;;;13.87;;
2299;SDS011;1158;48.750;9.078;2022-12-11T09:21:27;22.77;;;14.13;;
2299;SDS011;1158;48.750;9.078;2022-12-11T09:23:56;24.87;;;13.90;;
2299;SDS011;1158;48.750;9.078;2022-12-11T09:26:25;26.37;;;14.07;;
2299;SDS011;1158;48.750;9.078;2022-12-11T09:28:54;23.67;;;13.00;;
2299;SDS011;1158;48.750;9.078;2022-12-11T09:31:23;23.40;;;13.00;;
2299;SDS011;1158;48.750;9.078;2022-12-11T09:33:52;24.07;;;13.60;;
2299;SDS011;1158;48.750;9.078;2022-12-11T09:36:20;21.63;;;12.10;;
2299;SDS011;1158;48.750;9.078;2022-12-11T09:38:47;20.20;;;12.07;;
2299;SDS011;1158;48.750;9.078;2022-12-11T09:41:19;24.53;;;14.50;;
2299;SDS011;1158;48.750;9.078;2022-12-11T09:44:20;25.43;;;13.17;;
2299;SDS011;1158;48.750;9.078;2022-12-11T09:46:57;23.57;;;12.40;;
2299;SDS011;1158;48.750;9.078;2022-12-11T09:49:26;28.47;;;13.80;;
2299;SDS011;1158;48.750;9.078;2022-12-11T09:51:58;21.17;;;12.13;;
2299;SDS011;1158;48.750;9.078;2022-12-11T09:54:30;20.10;;;11.83;;
2299;SDS011;1158;48.750;9.078;2022-12-11T09:56:59;21.57;;;12.43;;
2299;SDS011;1158;48.750;9.078;2022-12-11T09:59:36;16.30;;;10.50;;
2299;SDS011;1158;48.750;9.078;2022-12-11T10:02:15;23.50;;;13.10;;
2299;SDS011;1158;48.750;9.078;2022-12-11T10:04:54;19.07;;;11.07;;
2299;SDS011;1158;48.750;9.078;2022-12-11T10:07:31;19.37;;;11.57;;
2299;SDS011;1158;48.750;9.078;2022-12-11T10:10:05;18.70;;;11.53;;
2299;SDS011;1158;48.750;9.078;2022-12-11T10:12:38;20.53;;;11.93;;
2299;SDS011;1158;48.750;9.078;2022-12-11T10:15:14;19.23;;;11.17;;
2299;SDS011;1158;48.750;9.078;2022-12-11T10:17:53;20.90;;;11.20;;
2299;SDS011;1158;48.750;9.078;2022-12-11T10:20:23;26.43;;;15.83;;
2299;SDS011;1158;48.750;9.078;2022-12-11T10:22:51;23.70;;;15.17;;
2299;SDS011;1158;48.750;9.078;2022-12-11T10:25:20;22.63;;;11.13;;
2299;SDS011;1158;48.750;9.078;2022-12-11T10:27:50;19.13;;;11.30;;
2299;SDS011;1158;48.750;9.078;2022-12-11T10:30:18;20.33;;;12.27;;
2299;SDS011;1158;48.750;9.078;2022-12-11T10:32:51;19.77;;;10.10;;
2299;SDS011;1158;48.750;9.078;2022-12-11T10:35:26;29.50;;;16.33;;
2299;SDS011;1158;48.750;9.078;2022-12-11T10:38:00;19.30;;;11.70;;
2299;SDS011;1158;48.750;9.078;2022-12-11T10:40:39;15.80;;;9.83;;
2299;SDS011;1158;48.750;9.078;2022-12-11T10:43:09;20.93;;;10.97;;
2299;SDS011;1158;48.750;9.078;2022-12-11T10:45:36;19.67;;;11.03;;
2299;SDS011;1158;48.750;9.078;2022-12-11T10:48:05;16.43;;;10.90;;
2299;SDS011;1158;48.750;9.078;2022-12-11T10:50:35;16.63;;;9.07;;
2299;SDS011;1158;48.750;9.078;2022-12-11T10:53:02;16.37;;;10.07;;
2299;SDS011;1158;48.750;9.078;2022-12-11T10:55:33;13.50;;;8.23;;
2299;SDS011;1158;48.750;9.078;2022-12-11T10:58:11;14.70;;;9.17;;
2299;SDS011;1158;48.750;9.078;2022-12-11T11:00:43;16.70;;;10.47;;
2299;SDS011;1158;48.750;9.078;2022-12-11T11:03:19;16.60;;;9.20;;
2299;SDS011;1158;48.750;9.078;2022-12-11T11:05:48;17.30;;;10.23;;
2299;SDS011;1158;48.750;9.078;2022-12-11T11:08:16;22.63;;;12.63;;
2299;SDS011;1158;48.750;9.078;2022-12-11T11:10:49;18.63;;;10.43;;
2299;SDS011;1158;48.750;9.078;2022-12-11T11:13:17;19.40;;;10.70;;
2299;SDS011;1158;48.750;9.078;2022-12-11T11:15:47;14.97;;;10.33;;
2299;SDS011;1158;48.750;9.078;2022-12-11T11:18:15;16.73;;;10.17;;
2299;SDS011;1158;48.750;9.078;2022-12-11T11:20:50;18.83;;;11.13;;
2299;SDS011;1158;48.750;9.078;2022-12-11T11:23:17;25.40;;;10.50;;
2299;SDS011;1158;48.750;9.078;2022-12-11T11:25:49;17.90;;;10.40;;
2299;SDS011;1158;48.750;9.078;2022-12-11T11:28:19;16.40;;;9.90;;
2299;SDS011;1158;48.750;9.078;2022-12-11T11:30:59;18.10;;;10.83;;
2299;SDS011;1158;48.750;9.078;2022-12-11T11:33:29;18.97;;;11.03;;
2299;SDS011;1158;48.750;9.078;2022-12-11T11:35:58;16.13;;;10.47;;
2299;SDS011;1158;48.750;9.078;2022-12-11T11:38:27;19.37;;;10.70;;
2299;SDS011;1158;48.750;9.078;2022-12-11T11:40:57;15.97;;;9.60;;
2299;SDS011;1158;48.750;9.078;2022-12-11T11:43:33;17.30;;;9.23;;
2299;SDS011;1158;48.750;9.078;2022-12-11T11:46:05;19.57;;;10.23;;
2299;SDS011;1158;48.750;9.078;2022-12-11T11:48:39;15.47;;;9.53;;
2299;SDS011;1158;48.750;9.078;2022-12-11T11:51:14;15.57;;;9.40;;
2299;SDS011;1158;48.750;9.078;2022-12-11T11:53:43;12.23;;;8.60;;
2299;SDS011;1158;48.750;9.078;2022-12-11T11:56:16;20.50;;;9.83;;
2299;SDS011;1158;48.750;9.078;2022-12-11T11:58:52;16.53;;;10.20;;
2299;SDS011;1158;48.750;9.078;2022-12-11T12:01:26;16.83;;;8.90;;
2299;SDS011;1158;48.750;9.078;2022-12-11T12:03:54;16.20;;;9.27;;
2299;SDS011;1158;48.750;9.078;2022-12-11T12:06:25;16.40;;;10.30;;
2299;SDS011;1158;48.750;9.078;2022-12-11T12:09:00;15.53;;;8.93;;
2299;SDS011;1158;48.750;9.078;2022-12-11T12:11:43;16.50;;;9.13;;
2299;SDS011;1158;48.750;9.078;2022-12-11T12:14:15;16.07;;;8.93;;
2299;SDS011;1158;48.750;9.078;2022-12-11T12:16:50;21.30;;;8.77;;
2299;SDS011;1158;48.750;9.078;2022-12-11T12:19:32;14.97;;;9.17;;
2299;SDS011;1158;48.750;9.078;2022-12-11T12:22:11;16.97;;;8.83;;
2299;SDS011;1158;48.750;9.078;2022-12-11T12:24:47;14.67;;;7.70;;
2299;SDS011;1158;48.750;9.078;2022-12-11T12:27:27;18.27;;;9.93;;
2299;SDS011;1158;48.750;9.078;2022-12-11T12:30:02;21.00;;;9.10;;
2299;SDS011;1158;48.750;9.078;2022-12-11T12:32:36;16.70;;;8.73;;
2299;SDS011;1158;48.750;9.078;2022-12-11T12:35:18;16.00;;;7.70;;
2299;SDS011;1158;48.750;9.078;2022-12-11T12:37:56;16.23;;;9.53;;
2299;SDS011;1158;48.750;9.078;2022-12-11T12:40:31;17.37;;;9.33;;
2299;SDS011;1158;48.750;9.078;2022-12-11T12:43:04;16.30;;;9.60;;
2299;SDS011;1158;48.750;9.078;2022-12-11T12:45:39;14.40;;;9.30;;
2299;SDS011;1158;48.750;9.078;2022-12-11T12:48:12;19.23;;;8.70;;
2299;SDS011;1158;48.750;9.078;2022-12-11T12:50:41;16.83;;;9.67;;
2299;SDS011;1158;48.750;9.078;2022-12-11T12:53:12;16.70;;;8.73;;
2299;SDS011;1158;48.750;9.078;2022-12-11T12:55:43;17.40;;;8.70;;
2299;SDS011;1158;48.750;9.078;2022-12-11T12:58:22;12.77;;;7.73;;
2299;SDS011;1158;48.750;9.078;2022-12-11T13:00:51;14.17;;;7.83;;
2299;SDS011;1158;48.750;9.078;2022-12-11T13:03:19;16.83;;;8.30;;
2299;SDS011;1158;48.750;9.078;2022-12-11T13:05:55;11.70;;;8.00;;
2299;SDS011;1158;48.750;9.078;2022-12-11T13:08:24;17.10;;;9.93;;
2299;SDS011;1158;48.750;9.078;2022-12-11T13:10:57;15.50;;;8.10;;
2299;SDS011;1158;48.750;9.078;2022-12-11T13:13:32;13.73;;;7.63;;
2299;SDS011;1158;48.750;9.078;2022-12-11T13:16:06;23.50;;;12.00;;
2299;SDS011;1158;48.750;9.078;2022-12-11T13:18:35;14.70;;;8.43;;
2299;SDS011;1158;48.750;9.078;2022-12-11T13:23:51;16.10;;;9.10;;
2299;SDS011;1158;48.750;9.078;2022-12-11T13:26:26;14.17;;;9.00;;
2299;SDS011;1158;48.750;9.078;2022-12-11T13:28:54;18.80;;;9.00;;
2299;SDS011;1158;48.750;9.078;2022-12-11T13:31:25;12.47;;;7.40;;
2299;SDS011;1158;48.750;9.078;2022-12-11T13:34:01;15.33;;;8.30;;
2299;SDS011;1158;48.750;9.078;2022-12-11T13:36:34;14.20;;;8.83;;
2299;SDS011;1158;48.750;9.078;2022-12-11T13:39:03;16.97;;;8.80;;
2299;SDS011;1158;48.750;9.078;2022-12-11T13:41:33;25.50;;;9.80;;
2299;SDS011;1158;48.750;9.078;2022-12-11T13:44:02;20.13;;;11.10;;
2299;SDS011;1158;48.750;9.078;2022-12-11T13:46:32;24.83;;;12.00;;
2299;SDS011;1158;48.750;9.078;2022-12-11T13:49:02;25.50;;;14.87;;
2299;SDS011;1158;48.750;9.078;2022-12-11T13:51:31;23.47;;;11.70;;
2299;SDS011;1158;48.750;9.078;2022-12-11T13:54:02;22.50;;;12.17;;
2299;SDS011;1158;48.750;9.078;2022-12-11T13:56:30;24.00;;;12.70;;
2299;SDS011;1158;48.750;9.078;2022-12-11T13:58:57;24.77;;;12.17;;
2299;SDS011;1158;48.750;9.078;2022-12-11T14:01:24;20.83;;;12.20;;
2299;SDS011;1158;48.750;9.078;2022-12-11T14:03:54;20.67;;;12.20;;
2299;SDS011;1158;48.750;9.078;2022-12-11T14:06:22;30.60;;;14.70;;
2299;SDS011;1158;48.750;9.078;2022-12-11T14:08:52;25.30;;;14.07;;
2299;SDS011;1158;48.750;9.078;2022-12-11T14:11:23;24.73;;;13.30;;
2299;SDS011;1158;48.750;9.078;2022-12-11T14:13:53;24.30;;;12.77;;
2299;SDS011;1158;48.750;9.078;2022-12-11T14:16:23;28.50;;;13.17;;
2299;SDS011;1158;48.750;9.078;2022-12-11T14:18:51;22.93;;;13.20;;
2299;SDS011;1158;48.750;9.078;2022-12-11T14:21:20;20.93;;;12.53;;
2299;SDS011;1158;48.750;9.078;2022-12-11T14:23:53;26.80;;;15.80;;
2299;SDS011;1158;48.750;9.078;2022-12-11T14:26:22;26.23;;;15.00;;
2299;SDS011;1158;48.750;9.078;2022-12-11T14:28:51;28.10;;;15.70;;
2299;SDS011;1158;48.750;9.078;2022-12-11T14:31:23;34.57;;;17.87;;
2299;SDS011;1158;48.750;9.078;2022-12-11T14:33:53;29.57;;;16.47;;
2299;SDS011;1158;48.750;9.078;2022-12-11T14:36:23;28.53;;;16.73;;
2299;SDS011;1158;48.750;9.078;2022-12-11T14:38:54;31.20;;;16.23;;
2299;SDS011;1158;48.750;9.078;2022-12-11T14:41:26;32.17;;;14.27;;
2299;SDS011;1158;48.750;9.078;2022-12-11T14:43:56;30.77;;;15.87;;
2299;SDS011;1158;48.750;9.078;2022-12-11T14:46:29;32.20;;;16.17;;
2299;SDS011;1158;48.750;9.078;2022-12-11T14:49:02;34.10;;;16.83;;
2299;SDS011;1158;48.750;9.078;2022-12-11T14:51:33;27.00;;;15.67;;
2299;SDS011;1158;48.750;9.078;2022-12-11T14:54:05;29.30;;;15.00;;
2299;SDS011;1158;48.750;9.078;2022-12-11T14:56:40;34.10;;;18.37;;
2299;SDS011;1158;48.750;9.078;2022-12-11T14:59:13;32.77;;;17.37;;
2299;SDS011;1158;48.750;9.078;2022-12-11T15:01:46;36.97;;;18.60;;
2299;SDS011;1158;48.750;9.078;2022-12-11T15:04:25;39.77;;;19.20;;
2299;SDS011;1158;48.750;9.078;2022-12-11T15:06:54;34.50;;;17.73;;
2299;SDS011;1158;48.750;9.078;2022-12-11T15:09:25;35.50;;;19.23;;
2299;SDS011;1158;48.750;9.078;2022-12-11T15:11:54;37.67;;;18.80;;